English Español Galego
facebook twitter google
Descargar Fichero Excel Descargar Fichero CSV
Volver
Fecha Temperatura del Aire (ºC) Temperatura del Agua 1.5m (ºC) Velocidad del Viento (m/s) Dirección del Viento Turbidez (NTU) Velocidad de la Corriente (cm/s) Dirección de la Corriente Salinidad (psu) Conductividad (mS/cm) LDO (mg/l) Humedad Relativa del Aire (%) Clorofila a (Fluorescencia) (µg/l) pH PAR (µE/(m^2s))
18-12-12 22:30 - - - - - - - - - - - - - 500
18-12-12 22:20 14.2 - 9.0 186.1 - - - - - - 89.2 - - 500
18-12-12 22:10 14.1 - 9.2 188.6 - - - - - - 88.5 - - 505
18-12-12 22:00 14.2 - 8.5 194.0 - - - - - - 84.6 - - 500
18-12-12 21:50 14.1 - 8.3 191.9 - - - - - - 82.7 - - 510
18-12-12 21:40 14.2 - 8.0 183.8 - - - - - - 87.2 - - 509
18-12-12 21:30 14.3 - 6.5 194.2 - - - - - - 89.0 - - 506
18-12-12 21:20 14.5 - 6.6 196.2 - - - - - - 86.5 - - 504
18-12-12 21:10 14.6 - 7.4 180.4 - - - - - - 83.0 - - 506
18-12-12 21:00 14.6 - 6.7 185.2 - - - - - - 82.5 - - 506
18-12-12 20:50 14.5 - 6.8 182.9 - - - - - - 82.5 - - 506
18-12-12 20:40 14.8 - 8.5 188.0 - - - - - - 80.7 - - 507
18-12-12 20:30 14.8 - 9.1 186.3 - - - - - - 79.1 - - 506
18-12-12 20:20 14.8 - 8.7 184.1 - - - - - - 77.7 - - 510
18-12-12 20:10 14.8 - 8.3 188.5 - - - - - - 77.8 - - 510
18-12-12 20:00 14.7 - 8.5 189.8 - - - - - - 77.8 - - 514
18-12-12 19:50 14.6 - 7.8 189.5 - - - - - - 78.4 - - 515
18-12-12 19:40 14.5 - 8.2 196.9 - - - - - - 78.8 - - 515
18-12-12 19:30 14.6 - 8.5 201.4 - - - - - - 78.3 - - 521
18-12-12 19:20 14.6 - 8.6 193.7 - - - - - - 78.5 - - 517
18-12-12 19:10 14.6 14.2 8.8 194.1 - - - - - - 78.3 - - 522
18-12-12 19:00 14.5 14.2 8.7 195.8 - - - - - - 78.3 - - 523
18-12-12 18:50 14.4 14.2 8.1 184.7 - - - - - - 78.6 - - 524
18-12-12 18:40 14.3 14.2 6.5 184.7 - - - - - - 80.4 - - 529
18-12-12 18:30 14.2 14.2 4.5 197.1 - - - - - - 82.0 - - 529
18-12-12 18:20 14.3 14.2 5.1 198.1 - - - - - - 80.3 - - 532
18-12-12 18:10 14.4 14.2 6.3 203.0 - - - - - - 78.5 - - 589
18-12-12 18:00 14.6 14.2 6.3 197.0 - - - - - - 77.0 - - 531
18-12-12 17:50 14.7 14.2 7.6 200.7 - - - - - - 75.2 - - 524
18-12-12 17:40 14.8 14.2 6.7 208.3 - - - - - - 74.4 - - 534
18-12-12 17:30 14.7 14.2 6.1 210.4 - - - - - - 75.2 - - 524
18-12-12 17:20 14.6 14.2 6.6 207.3 - - - - - - 75.3 - - 537
18-12-12 17:10 14.6 14.2 7.2 200.8 - - - - - - 75.8 - - 542
18-12-12 17:00 14.6 14.2 6.8 207.4 - - - - - - 75.9 - - 530
18-12-12 16:50 14.7 14.2 7.6 204.5 - - - - - - 74.4 - - 545
18-12-12 16:40 14.7 14.2 6.4 194.3 - - - - - - 73.7 - - 549
18-12-12 16:30 14.7 14.2 7.0 195.7 - - - - - - 73.2 - - 524
18-12-12 16:20 14.7 14.2 5.3 201.0 - - - - - - 73.5 - - 540
18-12-12 16:10 14.8 14.3 5.9 211.4 - - - - - - 72.5 - - 523
18-12-12 16:00 14.9 14.2 6.0 212.6 - - - - - - 71.9 - - 526
18-12-12 15:50 14.8 14.2 5.9 206.4 - - - - - - 71.8 - - 533
18-12-12 15:40 14.9 14.2 5.2 211.0 - - - - - - 72.2 - - 540
18-12-12 15:30 14.9 14.2 5.6 211.1 - - - - - - 72.0 - - 527
18-12-12 15:20 14.9 14.2 5.3 209.5 - - - - - - 73.1 - - 516
18-12-12 15:10 14.8 14.2 5.0 206.1 - - - - - - 74.0 - - 528
18-12-12 15:00 14.8 14.2 5.0 210.8 - - - - - - 75.1 - - 537
18-12-12 14:50 14.7 14.2 4.5 203.4 - - - - - - 76.1 - - 527
18-12-12 14:40 14.6 14.2 3.5 193.7 - - - - - - 77.2 - - 507
18-12-12 14:30 14.5 - 3.4 192.4 - - - - - - 78.5 - - 516
18-12-12 14:20 14.4 - 3.5 186.0 - - - - - - 78.4 - - 501
18-12-12 14:10 14.3 - 3.7 189.0 - - - - - - 78.2 - - 503
18-12-12 14:00 14.3 - 2.8 171.4 - - - - - - 78.9 - - 502
18-12-12 13:50 14.1 - 3.8 180.4 - - - - - - 79.5 - - 510
18-12-12 13:40 14.0 - 3.6 191.0 - - - - - - 80.8 - - 445
18-12-12 13:30 14.1 - 2.7 208.7 - - - - - - 79.5 - - 486
18-12-12 13:20 13.9 - 2.8 147.4 - - - - - - 79.9 - - 497
18-12-12 13:10 13.7 - 3.3 168.9 - - - - - - 81.2 - - 483
18-12-12 13:00 13.7 - 3.3 171.4 - - - - - - 81.7 - - 563
18-12-12 12:50 13.6 - 1.9 189.5 - - - - - - 82.2 - - 468
18-12-12 12:40 13.3 - 1.3 185.0 - - - - - - 84.5 - - 466
18-12-12 12:30 13.0 - 0.7 191.6 - - - - - - 89.2 - - 468
18-12-12 12:20 12.9 - 0.6 21.4 - - - - - - 89.8 - - 366
18-12-12 12:10 12.8 14.1 1.1 57.4 - - - - - - 88.8 - - 463
18-12-12 12:00 12.7 - 0.9 64.8 - - - - - - 89.0 - - 452
18-12-12 11:50 12.4 14.0 0.6 45.6 - - - - - - 90.1 - - 455
18-12-12 11:40 12.2 -99999.0 0.8 28.7 - - - - - - 92.8 - - 463
18-12-12 11:30 12.1 - 1.1 55.4 - - - - - - 94.4 - - 455
18-12-12 11:20 11.9 - 0.8 52.1 - - - - - - 96.2 - - 449
18-12-12 11:10 11.7 - 0.5 35.3 - - - - - - 97.2 - - 449
18-12-12 11:00 11.6 - 0.2 29.6 - - - - - - 98.3 - - 454
18-12-12 10:50 11.5 - 0.2 85.0 - - - - - - 99.7 - - 457
18-12-12 10:40 11.3 - 0.1 167.5 - - - - - - 100.0 - - 464
18-12-12 10:30 11.0 - 0.1 130.9 - - - - - - 100.0 - - 467
18-12-12 10:20 10.9 14.0 0.4 143.5 - - - - - - 100.0 - - 470
18-12-12 10:10 10.9 13.8 0.1 160.0 - - - - - - 100.0 - - 475
18-12-12 10:00 10.8 13.9 0.4 141.9 - - - - - - 100.0 - - 476
18-12-12 09:50 10.6 13.9 0.8 123.1 - - - - - - 100.0 - - 479
18-12-12 09:40 10.5 - 0.9 138.4 - - - - - - 100.0 - - 483
18-12-12 09:30 10.4 14.1 1.2 134.4 - - - - - - 100.0 - - 485